createdAt,value
2022-09-27T00:01:11.179Z,1.00
2022-09-27T00:03:38.308Z,0.85
2022-09-27T00:06:27.854Z,1.05
2022-09-27T00:11:27.972Z,0.93
2022-09-27T00:13:56.801Z,0.60
2022-09-27T00:16:26.041Z,1.65
2022-09-27T00:18:52.700Z,1.35
2022-09-27T00:21:19.504Z,0.60
2022-09-27T00:23:46.097Z,0.70
2022-09-27T00:26:14.173Z,0.55
2022-09-27T00:28:41.140Z,1.02
2022-09-27T00:31:17.852Z,0.60
2022-09-27T00:33:44.480Z,0.85
2022-09-27T00:36:11.141Z,0.50
2022-09-27T00:38:37.713Z,0.63
2022-09-27T00:41:04.329Z,0.75
2022-09-27T00:43:44.502Z,0.63
2022-09-27T00:46:13.494Z,0.50
2022-09-27T00:48:40.097Z,0.43
2022-09-27T00:51:09.721Z,0.45
2022-09-27T00:53:46.556Z,0.35
2022-09-27T00:56:18.752Z,0.85
2022-09-27T00:58:53.449Z,0.43
2022-09-27T01:01:20.147Z,0.50
2022-09-27T01:03:55.911Z,0.50
2022-09-27T01:06:22.673Z,0.50
2022-09-27T01:08:49.796Z,0.85
2022-09-27T01:17:26.725Z,0.70
2022-09-27T01:22:50.708Z,0.60
2022-09-27T01:25:57.779Z,0.40
2022-09-27T01:44:51.953Z,0.70
2022-09-27T01:47:22.905Z,0.57
2022-09-27T01:52:37.653Z,1.17
2022-09-27T01:55:08.130Z,1.20
2022-09-27T01:57:40.027Z,1.00
2022-09-27T02:00:09.930Z,1.15
2022-09-27T02:02:42.321Z,1.10
2022-09-27T02:05:13.695Z,0.77
2022-09-27T02:07:48.741Z,1.52
2022-09-27T02:10:21.955Z,0.98
2022-09-27T02:13:17.244Z,1.05
2022-09-27T02:15:57.847Z,1.30
2022-09-27T02:18:34.277Z,1.30
2022-09-27T02:21:04.684Z,0.75
2022-09-27T02:23:53.856Z,1.10
2022-09-27T02:26:27.210Z,1.58
2022-09-27T02:29:02.262Z,1.52
2022-09-27T02:31:28.901Z,1.85
2022-09-27T02:34:02.665Z,1.25
2022-09-27T02:36:30.473Z,1.40
2022-09-27T02:38:57.179Z,1.85
2022-09-27T02:41:24.105Z,0.95
2022-09-27T02:43:55.908Z,1.27
2022-09-27T02:55:18.417Z,1.48
2022-09-27T03:00:47.073Z,0.50
2022-09-27T03:05:57.876Z,0.88
2022-09-27T03:08:24.848Z,0.80
2022-09-27T03:10:51.940Z,0.80
2022-09-27T03:13:18.502Z,0.47
2022-09-27T03:15:45.036Z,0.65
2022-09-27T03:18:11.599Z,0.45
2022-09-27T03:20:38.142Z,0.63
2022-09-27T03:23:04.776Z,1.25
2022-09-27T03:25:31.298Z,1.08
2022-09-27T03:27:57.848Z,1.13
2022-09-27T03:30:24.392Z,0.60
2022-09-27T03:32:50.952Z,0.55
2022-09-27T03:35:17.499Z,0.52
2022-09-27T03:37:44.857Z,0.40
2022-09-27T03:40:11.458Z,0.32
2022-09-27T03:42:38.630Z,0.55
2022-09-27T03:45:05.505Z,0.95
2022-09-27T03:47:32.069Z,1.35
2022-09-27T03:49:58.611Z,0.63
2022-09-27T03:52:25.187Z,1.20
2022-09-27T03:54:51.876Z,0.52
2022-09-27T03:57:18.411Z,0.55
2022-09-27T03:59:44.911Z,0.68
2022-09-27T04:02:11.513Z,0.85
2022-09-27T04:04:38.372Z,1.27
2022-09-27T04:07:04.930Z,0.77
2022-09-27T04:09:31.508Z,0.75
2022-09-27T04:11:58.082Z,0.60
2022-09-27T04:14:24.617Z,0.70
2022-09-27T04:16:51.220Z,0.98
2022-09-27T04:19:17.799Z,0.65
2022-09-27T04:21:44.353Z,0.98
2022-09-27T04:24:12.006Z,0.55
2022-09-27T04:26:39.951Z,0.63
2022-09-27T04:29:08.309Z,0.77
2022-09-27T04:31:34.903Z,1.50
2022-09-27T04:34:01.450Z,0.93
2022-09-27T04:36:28.107Z,0.52
2022-09-27T04:38:57.374Z,1.00
2022-09-27T04:41:24.941Z,0.73
2022-09-27T04:43:56.640Z,0.75
2022-09-27T04:46:25.552Z,1.23
2022-09-27T04:48:52.308Z,0.47
2022-09-27T04:51:20.025Z,0.38
2022-09-27T04:53:47.250Z,0.70
2022-09-27T04:56:15.661Z,0.80
2022-09-27T04:58:42.556Z,0.50
2022-09-27T05:01:09.727Z,0.90
2022-09-27T05:03:36.618Z,0.80
2022-09-27T05:06:03.496Z,0.90
2022-09-27T05:08:30.097Z,0.55
2022-09-27T05:10:56.659Z,0.95
2022-09-27T05:13:23.206Z,0.77
2022-09-27T05:15:49.808Z,1.05
2022-09-27T05:18:18.077Z,0.52
2022-09-27T05:20:45.142Z,0.45
2022-09-27T05:23:12.665Z,0.77
2022-09-27T05:25:39.171Z,0.85
2022-09-27T05:28:06.250Z,0.35
2022-09-27T05:30:33.164Z,0.43
2022-09-27T05:32:59.700Z,0.65
2022-09-27T05:35:26.466Z,0.50
2022-09-27T05:37:55.224Z,0.63
2022-09-27T05:40:40.238Z,1.08
2022-09-27T05:43:07.764Z,0.60
2022-09-27T05:45:34.324Z,0.47
2022-09-27T05:48:00.944Z,0.88
2022-09-27T05:50:28.062Z,0.73
2022-09-27T05:52:55.250Z,0.43
2022-09-27T05:55:22.101Z,0.28
2022-09-27T05:57:59.549Z,0.57
2022-09-27T06:00:27.188Z,0.55
2022-09-27T06:02:55.332Z,0.30
2022-09-27T06:05:23.935Z,0.60
2022-09-27T06:07:50.881Z,0.30
2022-09-27T06:10:19.310Z,1.13
2022-09-27T06:12:46.504Z,0.68
2022-09-27T06:15:13.100Z,1.38
2022-09-27T06:17:39.657Z,4.13
2022-09-27T06:20:07.671Z,1.15
2022-09-27T06:22:34.302Z,1.25
2022-09-27T06:25:00.809Z,2.05
2022-09-27T06:27:27.410Z,0.88
2022-09-27T06:29:53.969Z,1.88
2022-09-27T06:32:20.573Z,1.55
2022-09-27T06:34:47.121Z,0.90
2022-09-27T06:37:13.684Z,0.75
2022-09-27T06:39:40.185Z,0.85
2022-09-27T06:42:07.523Z,0.82
2022-09-27T06:44:34.936Z,3.72
2022-09-27T06:47:01.436Z,5.63
2022-09-27T06:49:28.077Z,4.82
2022-09-27T06:51:55.529Z,5.70
2022-09-27T06:54:22.208Z,4.28
2022-09-27T06:56:49.086Z,2.88
2022-09-27T06:59:35.534Z,2.92
2022-09-27T07:02:02.251Z,4.47
2022-09-27T07:04:29.612Z,2.55
2022-09-27T07:06:56.383Z,5.35
2022-09-27T07:09:23.114Z,3.00
2022-09-27T07:11:49.664Z,2.67
2022-09-27T07:14:17.539Z,2.90
2022-09-27T07:16:45.528Z,2.90
2022-09-27T07:19:14.417Z,3.45
2022-09-27T07:21:41.079Z,1.95
2022-09-27T07:24:07.620Z,2.28
2022-09-27T07:26:34.169Z,1.33
2022-09-27T07:29:01.649Z,1.75
2022-09-27T07:31:29.706Z,1.08
2022-09-27T07:33:56.315Z,1.83
2022-09-27T07:36:22.887Z,2.55
2022-09-27T07:38:49.460Z,1.90
2022-09-27T07:41:16.135Z,1.27
2022-09-27T07:43:44.937Z,1.58
2022-09-27T07:46:12.134Z,1.30
2022-09-27T07:48:38.820Z,1.23
2022-09-27T07:51:07.849Z,1.70
2022-09-27T07:53:34.438Z,2.40
2022-09-27T07:56:01.290Z,2.42
2022-09-27T07:58:28.957Z,2.38
2022-09-27T08:00:56.959Z,2.10
2022-09-27T08:03:23.517Z,1.63
2022-09-27T08:05:50.059Z,1.02
2022-09-27T08:08:17.466Z,1.20
2022-09-27T08:10:47.122Z,1.13
2022-09-27T08:13:15.214Z,1.00
2022-09-27T08:15:41.770Z,2.03
2022-09-27T08:18:11.720Z,1.02
2022-09-27T08:20:38.320Z,1.73
2022-09-27T08:23:04.920Z,1.10
2022-09-27T08:25:31.728Z,2.00
2022-09-27T08:28:00.045Z,1.65
2022-09-27T08:30:28.563Z,1.63
2022-09-27T08:32:56.631Z,1.45
2022-09-27T08:35:23.505Z,1.25
2022-09-27T08:37:56.416Z,0.77
2022-09-27T08:40:28.224Z,1.30
2022-09-27T08:45:39.033Z,1.65
2022-09-27T08:48:09.297Z,1.20
2022-09-27T08:50:40.301Z,1.17
2022-09-27T08:55:55.584Z,1.58
2022-09-27T08:58:46.587Z,1.38
2022-09-27T09:01:17.499Z,2.53
2022-09-27T09:03:50.072Z,2.58
2022-09-27T09:06:24.297Z,1.23
2022-09-27T09:20:04.580Z,3.10
2022-09-27T09:33:52.667Z,0.90
2022-09-27T09:39:05.646Z,1.13
2022-09-27T09:41:38.903Z,1.10
2022-09-27T09:44:29.548Z,2.40
2022-09-27T09:46:59.577Z,5.70
2022-09-27T09:52:11.223Z,3.22
2022-09-27T09:54:44.772Z,1.80
2022-09-27T09:59:54.445Z,1.67
2022-09-27T10:04:57.985Z,0.70
2022-09-27T10:07:26.980Z,0.63
2022-09-27T10:09:57.570Z,0.43
2022-09-27T10:12:24.169Z,1.67
2022-09-27T10:14:53.076Z,0.63
2022-09-27T10:17:25.187Z,0.70
2022-09-27T10:19:54.314Z,0.93
2022-09-27T10:25:01.301Z,0.88
2022-09-27T10:27:29.104Z,0.75
2022-09-27T10:29:59.236Z,0.55
2022-09-27T10:32:33.073Z,0.60
2022-09-27T10:35:23.750Z,0.93
2022-09-27T10:37:51.085Z,0.70
2022-09-27T10:40:29.534Z,0.65
2022-09-27T10:42:56.225Z,1.02
2022-09-27T10:45:31.105Z,1.00
2022-09-27T10:48:00.658Z,0.88
2022-09-27T10:50:49.531Z,0.75
2022-09-27T10:53:21.007Z,0.22
2022-09-27T10:55:50.177Z,2.80
2022-09-27T10:58:24.645Z,0.65
2022-09-27T11:00:57.790Z,1.05
2022-09-27T11:03:26.482Z,0.43
2022-09-27T11:05:54.755Z,1.05
2022-09-27T11:11:25.741Z,4.03
2022-09-27T11:14:04.489Z,2.03
2022-09-27T11:19:26.865Z,1.33
2022-09-27T11:46:40.246Z,0.68
2022-09-27T11:52:03.431Z,1.05
2022-09-27T11:54:47.700Z,1.95
2022-09-27T12:05:38.389Z,0.57
2022-09-27T12:08:22.955Z,0.85
2022-09-27T12:10:55.295Z,0.95
2022-09-27T12:13:33.945Z,1.30
2022-09-27T12:16:01.805Z,0.60
2022-09-27T12:21:09.097Z,2.00
2022-09-27T12:23:56.714Z,0.70
2022-09-27T12:26:29.377Z,1.20
2022-09-27T12:29:02.354Z,2.63
2022-09-27T12:31:34.332Z,1.45
2022-09-27T12:36:45.122Z,1.23
2022-09-27T12:39:20.528Z,0.75
2022-09-27T12:41:56.517Z,1.23
2022-09-27T12:44:23.081Z,0.90
2022-09-27T12:52:23.255Z,0.52
2022-09-27T12:55:29.583Z,1.08
2022-09-27T13:01:18.446Z,1.77
2022-09-27T13:14:44.798Z,0.82
2022-09-27T13:17:51.184Z,0.85
2022-09-27T13:31:15.794Z,2.05
2022-09-27T13:36:32.979Z,0.68
2022-09-27T13:45:08.245Z,1.05
2022-09-27T13:47:40.616Z,1.10
2022-09-27T13:50:29.363Z,0.60
2022-09-27T13:53:03.295Z,1.40
2022-09-27T13:55:48.364Z,0.60
2022-09-27T14:00:56.139Z,0.70
2022-09-27T14:06:08.928Z,0.30
2022-09-27T14:08:43.850Z,1.15
2022-09-27T14:11:16.858Z,0.50
2022-09-27T14:13:46.560Z,0.30
2022-09-27T14:16:17.095Z,0.90
2022-09-27T14:18:50.845Z,0.85
2022-09-27T14:29:56.991Z,0.20
2022-09-27T14:32:27.237Z,0.88
2022-09-27T14:35:34.936Z,0.60
2022-09-27T14:38:20.667Z,0.77
2022-09-27T14:43:26.831Z,1.70
2022-09-27T14:45:58.644Z,2.05
2022-09-27T14:53:46.708Z,0.80
2022-09-27T14:56:18.257Z,1.55
2022-09-27T14:58:47.922Z,1.23
2022-09-27T15:01:18.726Z,1.67
2022-09-27T15:03:46.948Z,1.65
2022-09-27T15:06:13.618Z,1.58
2022-09-27T15:08:40.937Z,1.67
2022-09-27T15:11:10.766Z,1.25
2022-09-27T15:16:20.001Z,0.52
2022-09-27T15:18:49.275Z,1.50
2022-09-27T15:21:29.123Z,1.80
2022-09-27T15:23:55.717Z,1.38
2022-09-27T15:26:27.137Z,0.60
2022-09-27T15:28:53.937Z,2.50
2022-09-27T15:31:37.256Z,1.80
2022-09-27T15:34:07.978Z,2.20
2022-09-27T15:36:56.133Z,1.13
2022-09-27T15:39:42.577Z,1.42
2022-09-27T15:42:14.495Z,1.30
2022-09-27T15:44:47.594Z,0.30
2022-09-27T15:52:57.255Z,0.40
2022-09-27T15:57:58.197Z,0.50
2022-09-27T16:00:26.628Z,0.38
2022-09-27T16:02:55.027Z,0.50
2022-09-27T16:05:23.888Z,0.30
2022-09-27T16:07:51.437Z,0.60
2022-09-27T16:10:21.105Z,0.50
2022-09-27T16:12:47.674Z,0.50
2022-09-27T16:15:15.377Z,0.65
2022-09-27T16:17:43.834Z,0.30
2022-09-27T16:20:19.564Z,0.70
2022-09-27T16:22:46.128Z,0.40
2022-09-27T16:25:12.747Z,0.63
2022-09-27T16:27:39.395Z,0.52
2022-09-27T16:30:06.553Z,0.80
2022-09-27T16:32:33.218Z,0.82
2022-09-27T16:34:59.761Z,0.50
2022-09-27T16:37:26.361Z,0.43
2022-09-27T16:39:52.886Z,0.63
2022-09-27T16:42:19.429Z,0.52
2022-09-27T16:44:50.672Z,0.35
2022-09-27T16:47:17.354Z,0.60
2022-09-27T16:50:04.050Z,0.50
2022-09-27T16:52:32.605Z,0.93
2022-09-27T16:54:59.445Z,0.60
2022-09-27T16:57:28.437Z,0.47
2022-09-27T16:59:57.383Z,0.90
2022-09-27T17:02:24.599Z,0.60
2022-09-27T17:04:52.041Z,2.13
2022-09-27T17:07:18.575Z,0.85
2022-09-27T17:09:45.256Z,0.90
2022-09-27T17:12:12.854Z,0.88
2022-09-27T17:14:39.511Z,3.90
2022-09-27T17:17:07.081Z,0.63
2022-09-27T17:19:33.944Z,0.50
2022-09-27T17:22:01.380Z,0.70
2022-09-27T17:24:28.254Z,0.82
2022-09-27T17:26:55.401Z,0.65
2022-09-27T17:29:21.996Z,0.60
2022-09-27T17:31:48.603Z,0.88
2022-09-27T17:34:15.644Z,1.42
2022-09-27T17:36:48.107Z,1.35
2022-09-27T17:39:16.825Z,2.58
2022-09-27T17:41:43.861Z,1.55
2022-09-27T17:44:14.124Z,1.92
2022-09-27T17:46:41.669Z,2.58
2022-09-27T17:49:29.810Z,2.95
2022-09-27T17:51:56.641Z,1.90
2022-09-27T17:54:26.261Z,1.25
2022-09-27T17:56:52.825Z,5.78
2022-09-27T17:59:19.424Z,3.80
2022-09-27T18:01:47.805Z,3.53
2022-09-27T18:04:16.558Z,2.65
2022-09-27T18:06:46.186Z,8.88
2022-09-27T18:09:15.189Z,1.88
2022-09-27T18:11:42.377Z,1.77
2022-09-27T18:14:10.714Z,0.98
2022-09-27T18:16:41.325Z,1.05
2022-09-27T18:19:10.221Z,1.10
2022-09-27T18:21:36.795Z,0.52
2022-09-27T18:24:06.958Z,0.55
2022-09-27T18:26:37.979Z,0.65
2022-09-27T18:29:07.699Z,3.20
2022-09-27T18:31:34.360Z,1.60
2022-09-27T18:34:02.935Z,1.13
2022-09-27T18:36:29.739Z,1.45
2022-09-27T18:38:59.542Z,2.38
2022-09-27T18:41:28.406Z,4.57
2022-09-27T18:43:58.959Z,5.80
2022-09-27T18:46:35.428Z,6.03
2022-09-27T18:49:04.792Z,1.95
2022-09-27T18:51:32.122Z,1.33
2022-09-27T18:54:02.220Z,3.10
2022-09-27T18:56:29.708Z,1.42
2022-09-27T18:58:57.133Z,1.27
2022-09-27T19:01:25.632Z,1.92
2022-09-27T19:03:53.045Z,1.98
2022-09-27T19:06:22.544Z,1.20
2022-09-27T19:08:58.755Z,2.00
2022-09-27T19:11:26.801Z,1.38
2022-09-27T19:13:55.786Z,1.95
2022-09-27T19:16:24.363Z,4.45
2022-09-27T19:18:51.863Z,2.53
2022-09-27T19:21:22.169Z,2.90
2022-09-27T19:23:49.961Z,6.18
2022-09-27T19:26:19.205Z,5.90
2022-09-27T19:28:46.549Z,1.63
2022-09-27T19:31:15.913Z,4.03
2022-09-27T19:33:42.691Z,4.10
2022-09-27T19:36:12.158Z,2.60
2022-09-27T19:38:39.313Z,1.48
2022-09-27T19:41:08.191Z,2.20
2022-09-27T19:43:35.188Z,2.15
2022-09-27T19:46:04.850Z,1.52
2022-09-27T19:48:31.519Z,1.30
2022-09-27T19:50:59.444Z,0.85
2022-09-27T19:53:31.725Z,1.10
2022-09-27T19:56:05.412Z,0.90
2022-09-27T19:58:33.695Z,0.63
2022-09-27T20:03:44.236Z,0.75
2022-09-27T20:06:13.594Z,1.25
2022-09-27T20:08:40.815Z,2.60
2022-09-27T20:11:10.097Z,1.35
2022-09-27T20:13:37.870Z,2.05
2022-09-27T20:18:45.800Z,1.70
2022-09-27T20:21:13.823Z,1.70
2022-09-27T20:23:40.760Z,1.00
2022-09-27T20:26:09.840Z,1.55
2022-09-27T20:28:41.527Z,2.13
2022-09-27T20:31:08.156Z,2.08
2022-09-27T20:33:42.186Z,1.45
2022-09-27T20:36:10.932Z,2.47
2022-09-27T20:38:37.480Z,1.83
2022-09-27T20:41:04.124Z,1.38
2022-09-27T20:43:31.567Z,1.92
2022-09-27T20:46:03.265Z,1.90
2022-09-27T20:48:30.115Z,1.88
2022-09-27T20:51:01.264Z,1.55
2022-09-27T20:53:31.065Z,2.17
2022-09-27T20:55:59.948Z,1.88
2022-09-27T20:58:27.113Z,1.45
2022-09-27T21:00:53.765Z,1.50
2022-09-27T21:03:21.976Z,2.03
2022-09-27T21:05:57.365Z,1.40
2022-09-27T21:08:24.822Z,2.72
2022-09-27T21:10:52.924Z,1.63
2022-09-27T21:13:19.971Z,1.75
2022-09-27T21:15:47.581Z,1.23
2022-09-27T21:18:14.223Z,2.15
2022-09-27T21:20:40.819Z,1.52
2022-09-27T21:23:07.375Z,2.33
2022-09-27T21:25:33.914Z,1.98
2022-09-27T21:28:04.080Z,1.92
2022-09-27T21:30:31.412Z,1.95
2022-09-27T21:32:58.059Z,2.20
2022-09-27T21:35:24.693Z,2.35
2022-09-27T21:37:51.235Z,2.15
2022-09-27T21:40:18.139Z,1.80
2022-09-27T21:42:44.726Z,1.65
2022-09-27T21:45:11.829Z,3.33
2022-09-27T21:47:38.372Z,3.92
2022-09-27T21:50:05.422Z,4.30
2022-09-27T21:52:31.946Z,3.92
2022-09-27T21:54:58.513Z,1.95
2022-09-27T21:57:25.044Z,2.35
2022-09-27T21:59:51.590Z,1.92
2022-09-27T22:02:19.531Z,2.47
2022-09-27T22:04:48.951Z,1.75
2022-09-27T22:07:16.051Z,2.35
2022-09-27T22:09:42.679Z,1.83
2022-09-27T22:12:09.670Z,2.20
2022-09-27T22:14:36.256Z,1.52
2022-09-27T22:17:03.016Z,1.50
2022-09-27T22:19:29.586Z,1.45
2022-09-27T22:21:56.155Z,1.45
2022-09-27T22:24:22.941Z,1.27
2022-09-27T22:26:51.876Z,2.05
2022-09-27T22:29:18.841Z,1.92
2022-09-27T22:31:45.563Z,1.75
2022-09-27T22:34:17.140Z,1.15
2022-09-27T22:36:44.186Z,0.65
2022-09-27T22:39:10.937Z,2.10
2022-09-27T22:41:37.669Z,1.73
2022-09-27T22:44:04.304Z,2.00
2022-09-27T22:46:31.270Z,1.60
2022-09-27T22:48:57.916Z,2.22
2022-09-27T22:51:24.446Z,1.48
2022-09-27T22:53:51.009Z,1.80
2022-09-27T22:56:19.593Z,1.67
2022-09-27T22:58:47.747Z,1.88
2022-09-27T23:03:53.571Z,1.88
2022-09-27T23:06:21.789Z,1.00
2022-09-27T23:08:48.658Z,0.82
2022-09-27T23:11:18.628Z,0.90
2022-09-27T23:13:46.535Z,1.25
2022-09-27T23:16:16.717Z,1.02
2022-09-27T23:18:44.401Z,1.35
2022-09-27T23:21:12.930Z,1.08
2022-09-27T23:23:41.534Z,1.17
2022-09-27T23:26:11.407Z,1.13
2022-09-27T23:28:38.676Z,1.30
2022-09-27T23:31:08.344Z,1.25
2022-09-27T23:33:36.846Z,1.02
2022-09-27T23:36:03.894Z,1.45
2022-09-27T23:38:31.789Z,1.23
2022-09-27T23:40:59.171Z,1.15
2022-09-27T23:43:26.022Z,1.38
2022-09-27T23:45:55.119Z,1.98
2022-09-27T23:48:21.832Z,1.10
2022-09-27T23:50:48.647Z,1.25
2022-09-27T23:53:15.302Z,1.08
2022-09-27T23:55:42.019Z,0.77
2022-09-27T23:58:08.567Z,1.02
